createdAt,value
2018-12-11T00:00:56.282Z,138.30
2018-12-11T00:03:46.963Z,145.22
2018-12-11T00:06:35.143Z,145.25
2018-12-11T00:09:23.681Z,147.53
2018-12-11T00:12:11.852Z,152.97
2018-12-11T00:15:00.049Z,152.25
2018-12-11T00:17:48.995Z,161.15
2018-12-11T00:20:41.889Z,153.40
2018-12-11T00:23:31.235Z,146.95
2018-12-11T00:26:20.749Z,156.57
2018-12-11T00:29:10.646Z,156.63
2018-12-11T00:32:00.050Z,156.60
2018-12-11T00:34:49.216Z,156.20
2018-12-11T00:37:38.183Z,164.00
2018-12-11T00:40:26.780Z,147.37
2018-12-11T00:43:15.177Z,147.87
2018-12-11T00:46:03.725Z,150.30
2018-12-11T00:48:52.699Z,153.55
2018-12-11T00:51:41.310Z,151.57
2018-12-11T00:54:29.966Z,143.50
2018-12-11T00:57:18.905Z,146.40
2018-12-11T01:00:09.007Z,140.20
2018-12-11T01:02:59.453Z,142.25
2018-12-11T01:05:47.808Z,149.93
2018-12-11T01:08:36.396Z,149.85
2018-12-11T01:11:25.359Z,152.72
2018-12-11T01:14:13.855Z,145.97
2018-12-11T01:17:02.562Z,146.05
2018-12-11T01:19:51.184Z,144.35
2018-12-11T01:22:40.206Z,151.25
2018-12-11T01:25:29.026Z,144.57
2018-12-11T01:28:17.132Z,141.22
2018-12-11T01:31:06.453Z,148.95
2018-12-11T01:33:55.602Z,150.05
2018-12-11T01:36:43.551Z,154.63
2018-12-11T01:39:32.231Z,156.35
2018-12-11T01:42:21.289Z,146.43
2018-12-11T01:45:10.126Z,148.90
2018-12-11T01:47:58.649Z,151.15
2018-12-11T01:50:48.016Z,142.68
2018-12-11T01:53:36.370Z,154.30
2018-12-11T01:56:25.388Z,151.90
2018-12-11T01:59:13.527Z,168.55
2018-12-11T02:02:01.947Z,155.20
2018-12-11T02:04:50.781Z,147.75
2018-12-11T02:07:40.347Z,140.97
2018-12-11T02:10:28.353Z,153.93
2018-12-11T02:13:17.678Z,153.87
2018-12-11T02:16:05.723Z,152.72
2018-12-11T02:18:54.145Z,150.07
2018-12-11T02:21:43.332Z,152.10
2018-12-11T02:24:33.152Z,146.90
2018-12-11T02:27:21.890Z,146.53
2018-12-11T02:30:10.717Z,145.10
2018-12-11T02:32:59.814Z,148.25
2018-12-11T02:35:48.171Z,151.35
2018-12-11T02:38:37.287Z,140.00
2018-12-11T02:41:27.745Z,139.62
2018-12-11T02:44:15.763Z,143.13
2018-12-11T02:47:04.268Z,138.18
2018-12-11T02:49:52.838Z,144.00
2018-12-11T02:52:40.933Z,144.00
2018-12-11T02:55:29.499Z,135.57
2018-12-11T02:58:17.660Z,134.47
2018-12-11T03:01:05.647Z,129.78
2018-12-11T03:03:53.801Z,139.97
2018-12-11T03:06:42.696Z,133.18
2018-12-11T03:09:31.728Z,130.50
2018-12-11T03:12:20.887Z,133.22
2018-12-11T03:15:13.445Z,126.33
2018-12-11T03:18:01.882Z,125.55
2018-12-11T03:20:50.220Z,130.50
2018-12-11T03:23:40.424Z,124.72
2018-12-11T03:26:29.375Z,126.58
2018-12-11T03:29:20.049Z,128.78
2018-12-11T03:32:09.673Z,118.97
2018-12-11T03:34:58.349Z,124.42
2018-12-11T03:37:46.469Z,122.02
2018-12-11T03:40:35.624Z,127.58
2018-12-11T03:43:26.033Z,118.42
2018-12-11T03:46:15.546Z,117.90
2018-12-11T03:49:03.859Z,121.22
2018-12-11T03:51:52.429Z,118.65
2018-12-11T03:54:40.576Z,127.32
2018-12-11T03:57:28.116Z,127.92
2018-12-11T04:00:16.127Z,125.42
2018-12-11T04:03:05.983Z,121.15
2018-12-11T04:05:54.457Z,120.72
2018-12-11T04:15:11.192Z,113.35
2018-12-11T04:17:59.267Z,114.70
2018-12-11T04:20:47.620Z,107.22
2018-12-11T04:23:35.776Z,120.28
2018-12-11T04:26:24.410Z,121.10
2018-12-11T04:29:13.185Z,119.25
2018-12-11T04:32:03.308Z,110.55
2018-12-11T04:34:52.107Z,111.10
2018-12-11T04:37:41.264Z,107.80
2018-12-11T04:40:29.971Z,109.25
2018-12-11T04:43:18.746Z,114.17
2018-12-11T04:46:07.822Z,134.43
2018-12-11T04:48:58.322Z,131.45
2018-12-11T04:51:50.928Z,130.32
2018-12-11T04:54:40.059Z,140.10
2018-12-11T04:57:30.899Z,130.50
2018-12-11T05:00:20.419Z,142.75
2018-12-11T05:03:13.497Z,136.80
2018-12-11T05:06:04.284Z,140.35
2018-12-11T05:08:55.130Z,133.15
2018-12-11T05:11:45.361Z,137.40
2018-12-11T05:14:39.516Z,137.30
2018-12-11T05:17:29.237Z,129.53
2018-12-11T05:29:45.206Z,126.15
2018-12-11T05:36:01.093Z,130.22
2018-12-11T05:39:01.991Z,127.10
2018-12-11T05:41:58.864Z,125.95
2018-12-11T05:44:50.515Z,134.72
2018-12-11T05:47:46.559Z,124.22
2018-12-11T05:50:44.320Z,125.35
2018-12-11T05:53:42.838Z,144.30
2018-12-11T05:56:41.480Z,132.78
2018-12-11T05:59:42.027Z,131.85
2018-12-11T06:02:53.473Z,133.80
2018-12-11T06:05:46.111Z,134.55
2018-12-11T06:08:44.118Z,127.95
2018-12-11T06:11:40.367Z,135.82
2018-12-11T06:14:36.055Z,136.50
2018-12-11T06:17:28.362Z,129.38
2018-12-11T06:23:24.407Z,135.93
2018-12-11T06:26:21.610Z,140.12
2018-12-11T06:29:25.774Z,127.97
2018-12-11T06:32:25.602Z,127.27
2018-12-11T06:35:18.648Z,123.20
2018-12-11T06:38:12.723Z,125.62
2018-12-11T06:41:19.247Z,136.15
2018-12-11T06:44:15.790Z,127.87
2018-12-11T06:47:10.439Z,123.70
2018-12-11T06:50:02.874Z,130.10
2018-12-11T06:53:01.099Z,122.07
2018-12-11T06:59:14.667Z,128.10
2018-12-11T07:05:32.060Z,126.90
2018-12-11T07:11:46.876Z,147.00
2018-12-11T07:14:52.448Z,128.85
2018-12-11T07:17:51.589Z,131.97
2018-12-11T07:20:46.003Z,132.30
2018-12-11T07:23:40.958Z,139.12
2018-12-11T07:26:48.397Z,139.40
2018-12-11T07:32:44.583Z,132.03
2018-12-11T07:35:36.791Z,136.37
2018-12-11T07:38:36.007Z,138.43
2018-12-11T07:41:29.634Z,141.92
2018-12-11T07:44:24.820Z,140.75
2018-12-11T07:47:17.275Z,139.77
2018-12-11T07:53:36.547Z,144.53
2018-12-11T07:56:31.042Z,136.47
2018-12-11T07:59:36.825Z,159.57
2018-12-11T08:02:56.436Z,139.15
2018-12-11T08:09:22.659Z,138.18
2018-12-11T08:12:31.263Z,141.90
2018-12-11T08:15:26.930Z,146.25
2018-12-11T08:18:18.139Z,143.22
2018-12-11T08:21:09.105Z,134.57
2018-12-11T08:24:22.420Z,125.27
2018-12-11T08:30:29.650Z,132.37
2018-12-11T08:33:22.807Z,133.52
2018-12-11T08:36:14.891Z,125.18
2018-12-11T08:39:09.723Z,135.70
2018-12-11T08:42:00.725Z,127.20
2018-12-11T08:44:54.408Z,121.90
2018-12-11T08:47:57.710Z,124.18
2018-12-11T08:50:50.577Z,124.05
2018-12-11T08:53:42.875Z,126.30
2018-12-11T08:56:33.238Z,126.50
2018-12-11T08:59:23.836Z,131.75
2018-12-11T09:02:15.543Z,123.50
2018-12-11T09:05:09.579Z,123.65
2018-12-11T09:08:05.645Z,122.62
2018-12-11T09:11:00.439Z,120.77
2018-12-11T09:13:52.738Z,119.33
2018-12-11T09:16:44.829Z,104.97
2018-12-11T09:19:39.050Z,104.58
2018-12-11T09:22:31.505Z,112.90
2018-12-11T09:25:24.570Z,116.70
2018-12-11T09:31:34.522Z,101.70
2018-12-11T09:34:32.685Z,107.78
2018-12-11T09:37:25.452Z,105.78
2018-12-11T09:40:24.373Z,109.50
2018-12-11T09:43:14.699Z,105.97
2018-12-11T09:46:08.814Z,111.17
2018-12-11T09:49:01.873Z,116.65
2018-12-11T09:51:54.492Z,115.25
2018-12-11T09:54:44.884Z,109.07
2018-12-11T09:57:35.472Z,108.78
2018-12-11T10:00:27.566Z,101.65
2018-12-11T10:03:29.805Z,108.17
2018-12-11T10:06:28.526Z,109.03
2018-12-11T10:09:20.778Z,102.55
2018-12-11T10:12:13.540Z,113.37
2018-12-11T10:15:04.508Z,109.27
2018-12-11T10:17:56.305Z,107.05
2018-12-11T10:20:49.447Z,113.47
2018-12-11T10:23:49.397Z,113.50
2018-12-11T10:26:49.234Z,106.90
2018-12-11T10:29:42.680Z,112.10
2018-12-11T10:32:36.665Z,119.80
2018-12-11T10:35:29.222Z,118.87
2018-12-11T10:38:24.500Z,112.92
2018-12-11T10:41:16.452Z,115.35
2018-12-11T10:47:10.373Z,114.45
2018-12-11T10:50:01.840Z,113.45
2018-12-11T10:52:52.066Z,114.62
2018-12-11T10:55:41.037Z,113.20
2018-12-11T10:58:44.662Z,115.42
2018-12-11T11:04:47.243Z,109.45
2018-12-11T11:07:37.158Z,113.42
2018-12-11T11:10:28.415Z,109.32
2018-12-11T11:13:21.349Z,116.20
2018-12-11T11:16:23.276Z,116.97
2018-12-11T11:19:15.736Z,112.03
2018-12-11T11:22:17.096Z,111.95
2018-12-11T11:28:23.168Z,110.20
2018-12-11T11:31:17.271Z,107.45
2018-12-11T11:34:38.299Z,108.50
2018-12-11T11:37:38.439Z,103.62
2018-12-11T11:40:34.081Z,111.03
2018-12-11T11:43:28.553Z,111.55
2018-12-11T11:46:19.412Z,101.97
2018-12-11T11:49:17.483Z,109.85
2018-12-11T11:52:22.269Z,100.72
2018-12-11T11:55:13.904Z,105.03
2018-12-11T11:58:07.565Z,102.67
2018-12-11T12:00:57.710Z,107.32
2018-12-11T12:03:48.888Z,98.47
2018-12-11T12:06:39.774Z,100.80
2018-12-11T12:09:29.643Z,103.40
2018-12-11T12:15:29.165Z,98.75
2018-12-11T12:18:18.526Z,97.67
2018-12-11T12:21:08.070Z,107.58
2018-12-11T12:23:58.506Z,110.00
2018-12-11T12:26:51.415Z,101.05
2018-12-11T12:29:40.684Z,104.35
2018-12-11T12:32:30.718Z,104.45
2018-12-11T12:35:22.257Z,104.17
2018-12-11T12:38:14.210Z,97.12
2018-12-11T12:41:04.279Z,105.05
2018-12-11T12:43:53.236Z,109.05
2018-12-11T12:46:43.066Z,105.78
2018-12-11T12:49:32.569Z,98.87
2018-12-11T12:52:21.723Z,98.60
2018-12-11T12:55:11.704Z,102.25
2018-12-11T12:58:00.591Z,104.83
2018-12-11T13:00:48.744Z,106.12
2018-12-11T13:03:40.380Z,102.97
2018-12-11T13:06:29.595Z,108.37
2018-12-11T13:09:18.125Z,106.72
2018-12-11T13:12:07.980Z,106.47
2018-12-11T13:14:56.269Z,117.13
2018-12-11T13:17:45.377Z,109.12
2018-12-11T13:20:33.609Z,113.65
2018-12-11T13:23:38.919Z,108.90
2018-12-11T13:26:29.187Z,114.32
2018-12-11T13:29:21.256Z,114.90
2018-12-11T13:32:18.920Z,119.95
2018-12-11T13:35:07.890Z,117.20
2018-12-11T13:37:56.722Z,123.75
2018-12-11T13:40:45.908Z,122.30
2018-12-11T13:43:35.445Z,125.27
2018-12-11T13:46:31.905Z,125.15
2018-12-11T13:49:22.069Z,133.07
2018-12-11T13:52:10.897Z,127.30
2018-12-11T13:54:58.882Z,128.10
2018-12-11T13:57:47.486Z,123.78
2018-12-11T14:00:35.856Z,132.52
2018-12-11T14:03:24.701Z,125.53
2018-12-11T14:06:12.255Z,132.12
2018-12-11T14:09:02.857Z,132.03
2018-12-11T14:11:52.253Z,134.67
2018-12-11T14:14:40.498Z,138.85
2018-12-11T14:17:29.254Z,135.85
2018-12-11T14:20:29.131Z,143.87
2018-12-11T14:23:17.868Z,135.25
2018-12-11T14:26:06.667Z,145.50
2018-12-11T14:28:56.452Z,136.47
2018-12-11T14:31:45.225Z,127.07
2018-12-11T14:34:32.593Z,129.23
2018-12-11T14:37:20.807Z,136.55
2018-12-11T14:40:09.146Z,135.45
2018-12-11T14:42:57.421Z,127.40
2018-12-11T14:45:45.965Z,128.00
2018-12-11T14:48:34.787Z,122.85
2018-12-11T14:51:23.870Z,131.20
2018-12-11T14:54:13.731Z,131.05
2018-12-11T14:57:02.408Z,127.72
2018-12-11T14:59:51.035Z,124.53
2018-12-11T15:02:40.351Z,129.85
2018-12-11T15:05:29.154Z,128.95
2018-12-11T15:08:17.582Z,129.57
2018-12-11T15:11:05.453Z,131.57
2018-12-11T15:13:53.159Z,130.80
2018-12-11T15:16:40.980Z,125.22
2018-12-11T15:19:28.868Z,130.22
2018-12-11T15:22:17.000Z,129.20
2018-12-11T15:25:04.996Z,119.40
2018-12-11T15:27:52.983Z,129.55
2018-12-11T15:30:40.837Z,126.95
2018-12-11T15:33:28.907Z,126.67
2018-12-11T15:36:18.204Z,135.48
2018-12-11T15:39:08.025Z,135.70
2018-12-11T15:41:56.818Z,130.82
2018-12-11T15:44:44.643Z,130.55
2018-12-11T15:47:33.019Z,130.40
2018-12-11T15:50:22.057Z,119.53
2018-12-11T15:53:10.663Z,123.87
2018-12-11T15:55:59.356Z,127.15
2018-12-11T15:58:47.107Z,127.92
2018-12-11T16:01:35.740Z,120.97
2018-12-11T16:04:24.367Z,118.80
2018-12-11T16:07:12.679Z,124.53
2018-12-11T16:10:00.675Z,126.45
2018-12-11T16:12:48.768Z,126.42
2018-12-11T16:15:39.314Z,129.38
2018-12-11T16:18:29.655Z,130.12
2018-12-11T16:21:18.076Z,126.90
2018-12-11T16:24:07.582Z,125.40
2018-12-11T16:26:56.015Z,131.40
2018-12-11T16:29:45.696Z,125.72
2018-12-11T16:32:33.975Z,123.02
2018-12-11T16:35:23.744Z,130.30
2018-12-11T16:38:12.941Z,122.85
2018-12-11T16:41:01.277Z,120.95
2018-12-11T16:43:50.125Z,123.87
2018-12-11T16:46:37.991Z,131.52
2018-12-11T16:49:26.092Z,121.82
2018-12-11T16:52:15.019Z,128.15
2018-12-11T16:55:03.160Z,130.05
2018-12-11T16:57:51.842Z,133.87
2018-12-11T17:00:41.636Z,127.30
2018-12-11T17:03:30.611Z,124.72
2018-12-11T17:06:19.662Z,125.87
2018-12-11T17:09:11.622Z,122.87
2018-12-11T17:12:00.536Z,124.33
2018-12-11T17:14:49.608Z,129.07
2018-12-11T17:17:38.169Z,132.63
2018-12-11T17:20:26.946Z,124.47
2018-12-11T17:23:14.892Z,131.78
2018-12-11T17:26:03.469Z,125.53
2018-12-11T17:28:52.409Z,117.67
2018-12-11T17:31:42.912Z,124.60
2018-12-11T17:34:31.401Z,121.33
2018-12-11T17:37:20.031Z,132.37
2018-12-11T17:40:09.465Z,130.80
2018-12-11T17:42:57.931Z,126.58
2018-12-11T17:45:46.545Z,130.97
2018-12-11T17:48:41.444Z,130.65
2018-12-11T17:51:26.690Z,134.50
2018-12-11T17:54:14.475Z,132.67
2018-12-11T17:57:03.085Z,125.80
2018-12-11T17:59:51.675Z,114.60
2018-12-11T18:02:41.189Z,124.10
2018-12-11T18:05:29.000Z,139.43
2018-12-11T18:08:16.663Z,141.28
2018-12-11T18:11:04.396Z,135.50
2018-12-11T18:13:53.581Z,134.22
2018-12-11T18:16:41.957Z,131.10
2018-12-11T18:19:30.522Z,142.53
2018-12-11T18:22:18.702Z,136.97
2018-12-11T18:25:07.775Z,130.90
2018-12-11T18:27:55.430Z,134.67
2018-12-11T18:30:44.346Z,130.15
2018-12-11T18:33:32.533Z,132.97
2018-12-11T18:36:20.374Z,135.28
2018-12-11T18:39:10.524Z,137.70
2018-12-11T18:42:01.340Z,145.65
2018-12-11T18:44:49.001Z,138.40
2018-12-11T18:47:36.706Z,144.45
2018-12-11T18:50:25.666Z,137.95
2018-12-11T18:53:13.210Z,136.03
2018-12-11T18:56:01.065Z,130.27
2018-12-11T18:58:50.626Z,139.25
2018-12-11T19:01:38.859Z,146.65
2018-12-11T19:04:29.445Z,134.03
2018-12-11T19:07:17.787Z,133.43
2018-12-11T19:10:07.874Z,135.18
2018-12-11T19:12:55.500Z,136.15
2018-12-11T19:15:43.767Z,131.15
2018-12-11T19:18:33.499Z,143.78
2018-12-11T19:21:26.036Z,132.78
2018-12-11T19:24:19.129Z,138.70
2018-12-11T19:27:06.939Z,138.95
2018-12-11T19:29:55.386Z,127.70
2018-12-11T19:32:43.915Z,131.72
2018-12-11T19:35:33.184Z,131.43
2018-12-11T19:38:25.496Z,141.15
2018-12-11T19:41:13.444Z,124.90
2018-12-11T19:44:03.259Z,145.07
2018-12-11T19:46:52.115Z,138.70
2018-12-11T19:49:40.456Z,135.03
2018-12-11T19:52:27.918Z,133.67
2018-12-11T19:55:16.308Z,134.15
2018-12-11T19:58:04.491Z,136.37
2018-12-11T20:00:53.171Z,138.72
2018-12-11T20:03:41.162Z,136.85
2018-12-11T20:06:29.336Z,131.72
2018-12-11T20:09:17.847Z,137.68
2018-12-11T20:12:05.618Z,136.65
2018-12-11T20:14:53.647Z,126.85
2018-12-11T20:17:43.031Z,132.55
2018-12-11T20:20:34.158Z,129.27
2018-12-11T20:23:23.987Z,127.58
2018-12-11T20:26:13.783Z,129.75
2018-12-11T20:29:02.076Z,128.93
2018-12-11T20:31:51.542Z,123.95
2018-12-11T20:34:39.948Z,128.65
2018-12-11T20:37:27.941Z,122.40
2018-12-11T20:40:15.936Z,123.87
2018-12-11T20:43:04.953Z,126.47
2018-12-11T20:45:54.205Z,129.18
2018-12-11T20:48:42.508Z,126.05
2018-12-11T20:51:30.237Z,123.22
2018-12-11T20:54:18.824Z,116.50
2018-12-11T20:57:07.246Z,135.25
2018-12-11T20:59:55.790Z,127.35
2018-12-11T21:02:43.781Z,120.02
2018-12-11T21:05:32.604Z,122.20
2018-12-11T21:08:21.877Z,133.52
2018-12-11T21:11:10.113Z,126.53
2018-12-11T21:13:59.191Z,125.55
2018-12-11T21:16:48.067Z,126.02
2018-12-11T21:19:36.566Z,130.93
2018-12-11T21:22:24.654Z,131.97
2018-12-11T21:25:13.386Z,135.70
2018-12-11T21:28:01.739Z,128.20
2018-12-11T21:30:52.480Z,138.62
2018-12-11T21:33:40.743Z,133.05
2018-12-11T21:36:29.090Z,136.03
2018-12-11T21:39:20.090Z,137.28
2018-12-11T21:42:10.179Z,134.95
2018-12-11T21:44:59.975Z,136.03
2018-12-11T21:47:47.905Z,133.80
2018-12-11T21:50:35.522Z,131.60
2018-12-11T21:53:27.645Z,131.65
2018-12-11T21:56:16.294Z,129.82
2018-12-11T21:59:04.348Z,131.27
2018-12-11T22:01:51.923Z,131.22
2018-12-11T22:04:40.079Z,127.70
2018-12-11T22:07:27.766Z,127.32
2018-12-11T22:10:16.145Z,134.47
2018-12-11T22:13:03.748Z,127.02
2018-12-11T22:15:51.711Z,124.12
2018-12-11T22:18:39.978Z,125.27
2018-12-11T22:21:27.518Z,127.45
2018-12-11T22:24:15.686Z,133.03
2018-12-11T22:27:03.376Z,134.47
2018-12-11T22:29:51.080Z,124.75
2018-12-11T22:32:38.996Z,125.12
2018-12-11T22:35:26.889Z,120.37
2018-12-11T22:38:14.920Z,126.50
2018-12-11T22:41:02.470Z,121.77
2018-12-11T22:43:50.227Z,121.25
2018-12-11T22:46:38.767Z,128.47
2018-12-11T22:49:27.196Z,121.20
2018-12-11T22:52:15.058Z,118.93
2018-12-11T22:55:02.836Z,120.57
2018-12-11T22:57:51.212Z,123.67
2018-12-11T23:00:39.244Z,123.87
2018-12-11T23:03:30.409Z,122.75
2018-12-11T23:06:18.780Z,125.02
2018-12-11T23:09:07.327Z,129.07
2018-12-11T23:11:57.714Z,118.50
2018-12-11T23:14:46.606Z,120.25
2018-12-11T23:17:34.940Z,117.93
2018-12-11T23:20:23.394Z,121.37
2018-12-11T23:23:11.804Z,122.98
2018-12-11T23:26:00.550Z,119.90
2018-12-11T23:28:49.863Z,114.40
2018-12-11T23:31:38.734Z,120.10
2018-12-11T23:34:27.447Z,120.47
2018-12-11T23:37:16.257Z,117.28
2018-12-11T23:40:04.311Z,113.40
2018-12-11T23:42:52.019Z,118.82
2018-12-11T23:45:41.029Z,121.02
2018-12-11T23:48:28.699Z,121.05
2018-12-11T23:51:17.122Z,119.22
2018-12-11T23:54:05.050Z,124.45
2018-12-11T23:56:56.023Z,117.65
2018-12-11T23:59:44.043Z,122.92
